Time;durP1;ratioP1;P1;durP2;ratioP2;P2;SDS_P1;SDS_P2;PMS_P1;PMS_P2;Temp;Humidity;BMP_temperature;BMP_pressure;BME280_temperature;BME280_humidity;BME280_pressure;Samples;Min_cycle;Max_cycle;Signal;HPM_P1;HPM_P2
2022/01/17 00:00:36;;;;;;;15.07;8.23;;;;;;;;;;5016251;28;20025;-86
2022/01/17 00:03:03;;;;;;;15.00;7.50;;;;;;;;;;5033118;28;20399;-87
2022/01/17 00:05:29;;;;;;;21.73;8.75;;;;;;;;;;5016335;28;20037;-86
2022/01/17 00:07:55;;;;;;;15.48;10.18;;;;;;;;;;5034037;28;20036;-88
2022/01/17 00:10:21;;;;;;;15.52;9.80;;;;;;;;;;5016293;28;20481;-87
2022/01/17 00:12:48;;;;;;;12.93;7.10;;;;;;;;;;5016294;28;20415;-87
2022/01/17 00:15:42;;;;;;;19.23;9.27;;;;;;;;;;5032505;28;20036;-87
2022/01/17 00:18:26;;;;;;;16.33;9.18;;;;;;;;;;5034346;28;20117;-87
2022/01/17 00:20:51;;;;;;;16.90;9.13;;;;;;;;;;5033773;28;20086;-87
2022/01/17 00:23:17;;;;;;;18.58;8.65;;;;;;;;;;5016234;28;20049;-86
2022/01/17 00:25:43;;;;;;;15.57;8.20;;;;;;;;;;5033580;28;20373;-87
2022/01/17 00:28:09;;;;;;;21.90;10.68;;;;;;;;;;5016141;28;20489;-87
2022/01/17 00:30:36;;;;;;;12.27;6.85;;;;;;;;;;5015703;28;20028;-88
2022/01/17 00:33:02;;;;;;;22.92;13.82;;;;;;;;;;5033739;28;20048;-88
2022/01/17 00:35:28;;;;;;;15.77;9.63;;;;;;;;;;5014500;28;20490;-86
2022/01/17 00:37:53;;;;;;;20.75;11.88;;;;;;;;;;5016214;28;20432;-87
2022/01/17 00:40:20;;;;;;;15.82;8.20;;;;;;;;;;5015886;28;20029;-87
2022/01/17 00:42:46;;;;;;;16.85;10.15;;;;;;;;;;5033628;28;20111;-87
2022/01/17 00:45:13;;;;;;;11.77;7.05;;;;;;;;;;5015352;28;20815;-87
2022/01/17 00:47:40;;;;;;;11.05;6.10;;;;;;;;;;5015905;28;20681;-87
2022/01/17 00:50:06;;;;;;;22.02;10.43;;;;;;;;;;5015397;28;20021;-85
2022/01/17 00:52:32;;;;;;;18.00;10.07;;;;;;;;;;5016266;28;20032;-88
2022/01/17 00:54:57;;;;;;;15.38;8.30;;;;;;;;;;5015683;28;20029;-88
2022/01/17 00:57:24;;;;;;;14.63;6.80;;;;;;;;;;5015308;28;20533;-86
2022/01/17 00:59:49;;;;;;;12.73;6.72;;;;;;;;;;5015018;28;20033;-86
2022/01/17 01:02:15;;;;;;;14.60;6.93;;;;;;;;;;5033312;28;20538;-87
2022/01/17 01:04:40;;;;;;;11.70;6.63;;;;;;;;;;5015245;28;20029;-85
2022/01/17 01:07:07;;;;;;;15.57;6.22;;;;;;;;;;5015157;28;20026;-87
2022/01/17 01:09:39;;;;;;;12.73;7.45;;;;;;;;;;5032868;28;20082;-86
2022/01/17 01:12:05;;;;;;;15.00;5.82;;;;;;;;;;5015664;28;20075;-86
2022/01/17 01:14:31;;;;;;;12.65;6.30;;;;;;;;;;5033340;28;20112;-86
2022/01/17 01:16:57;;;;;;;11.57;6.38;;;;;;;;;;5032895;28;20026;-86
2022/01/17 01:29:46;;;;;;;10.27;5.47;;;;;;;;;;5032173;28;20108;-85
2022/01/17 01:32:13;;;;;;;13.15;7.60;;;;;;;;;;5014706;28;20059;-86
2022/01/17 01:34:44;;;;;;;11.70;5.80;;;;;;;;;;5014586;28;20113;-86
2022/01/17 01:37:10;;;;;;;8.32;4.82;;;;;;;;;;5032020;28;20025;-86
2022/01/17 01:39:37;;;;;;;9.98;5.35;;;;;;;;;;5032277;28;20083;-85
2022/01/17 01:42:04;;;;;;;8.68;4.63;;;;;;;;;;5014603;28;20036;-86
2022/01/17 01:44:30;;;;;;;10.68;6.03;;;;;;;;;;5021088;28;20114;-86
2022/01/17 01:46:57;;;;;;;15.75;7.43;;;;;;;;;;5032060;28;20032;-86
2022/01/17 01:49:24;;;;;;;10.75;5.72;;;;;;;;;;5013945;28;20481;-85
2022/01/17 01:51:50;;;;;;;12.65;7.30;;;;;;;;;;5011227;28;20052;-84
2022/01/17 01:54:16;;;;;;;16.00;7.40;;;;;;;;;;5014273;28;20037;-86
2022/01/17 01:56:45;;;;;;;12.82;6.78;;;;;;;;;;5013864;28;20060;-86
2022/01/17 01:59:11;;;;;;;18.52;9.63;;;;;;;;;;5014218;28;20437;-85
2022/01/17 02:01:37;;;;;;;16.98;6.05;;;;;;;;;;5014217;28;20017;-86
2022/01/17 02:04:04;;;;;;;18.30;6.70;;;;;;;;;;5031737;28;20395;-86
2022/01/17 02:06:29;;;;;;;19.73;10.68;;;;;;;;;;5030802;28;20444;-85
2022/01/17 02:08:55;;;;;;;13.27;7.88;;;;;;;;;;5018543;28;20029;-85
2022/01/17 02:11:20;;;;;;;13.27;7.10;;;;;;;;;;5011488;28;20036;-85
2022/01/17 02:13:46;;;;;;;13.73;9.18;;;;;;;;;;5013985;28;20465;-85
2022/01/17 02:16:14;;;;;;;11.30;6.30;;;;;;;;;;5014013;28;20251;-86
2022/01/17 02:18:44;;;;;;;20.08;8.10;;;;;;;;;;5031355;28;20017;-85
2022/01/17 02:23:37;;;;;;;13.93;7.35;;;;;;;;;;5031402;28;20053;-85
2022/01/17 02:26:05;;;;;;;20.08;11.05;;;;;;;;;;5031643;28;20036;-84
2022/01/17 02:28:33;;;;;;;15.38;6.63;;;;;;;;;;5014256;28;20040;-84
2022/01/17 02:31:00;;;;;;;9.13;5.80;;;;;;;;;;5011012;28;20477;-84
2022/01/17 02:33:27;;;;;;;12.25;7.32;;;;;;;;;;5031579;28;20052;-85
2022/01/17 02:35:53;;;;;;;15.50;8.07;;;;;;;;;;5028699;28;20040;-84
2022/01/17 02:38:19;;;;;;;13.85;7.70;;;;;;;;;;5013598;28;20033;-84
2022/01/17 02:40:44;;;;;;;14.57;6.45;;;;;;;;;;5013675;28;20108;-85
2022/01/17 02:43:10;;;;;;;19.80;8.45;;;;;;;;;;5031676;28;20251;-87
2022/01/17 02:48:05;;;;;;;13.80;7.13;;;;;;;;;;5031837;28;20401;-86
2022/01/17 02:50:31;;;;;;;15.60;6.82;;;;;;;;;;5013755;28;20031;-86
2022/01/17 02:53:05;;;;;;;12.10;6.95;;;;;;;;;;5031737;28;20104;-87
2022/01/17 02:55:31;;;;;;;14.35;6.72;;;;;;;;;;5012924;28;20022;-84
2022/01/17 02:57:57;;;;;;;15.93;7.45;;;;;;;;;;5013373;28;20037;-85
2022/01/17 03:00:23;;;;;;;13.40;6.28;;;;;;;;;;5011056;28;20470;-83
2022/01/17 03:02:49;;;;;;;12.43;7.68;;;;;;;;;;5013309;28;20029;-85
2022/01/17 03:05:19;;;;;;;13.60;7.00;;;;;;;;;;5034486;28;20064;-85
2022/01/17 03:07:46;;;;;;;14.40;7.88;;;;;;;;;;5014532;28;20100;-85
2022/01/17 03:10:23;;;;;;;18.33;7.88;;;;;;;;;;5034742;28;20040;-84
2022/01/17 03:12:49;;;;;;;17.00;7.45;;;;;;;;;;5013041;28;20021;-84
2022/01/17 03:15:14;;;;;;;15.63;8.45;;;;;;;;;;5034163;28;20389;-86
2022/01/17 03:17:40;;;;;;;16.58;7.68;;;;;;;;;;5017188;28;20029;-86
2022/01/17 03:20:07;;;;;;;16.85;10.27;;;;;;;;;;5017026;28;20381;-84
2022/01/17 03:22:33;;;;;;;18.13;8.55;;;;;;;;;;5016600;28;20076;-85
2022/01/17 03:24:58;;;;;;;12.93;7.15;;;;;;;;;;5034671;28;20071;-86
2022/01/17 03:27:24;;;;;;;22.48;9.77;;;;;;;;;;5016951;28;20101;-86
2022/01/17 03:29:50;;;;;;;17.08;8.50;;;;;;;;;;5034307;28;20022;-85
2022/01/17 03:32:15;;;;;;;15.68;6.82;;;;;;;;;;5034859;28;20025;-86
2022/01/17 03:34:42;;;;;;;15.07;9.73;;;;;;;;;;5015580;28;20552;-82
2022/01/17 03:37:08;;;;;;;14.75;8.48;;;;;;;;;;5016288;28;20031;-84
2022/01/17 03:39:33;;;;;;;10.48;6.80;;;;;;;;;;5016216;28;20037;-85
2022/01/17 03:41:59;;;;;;;16.98;8.77;;;;;;;;;;5017037;28;20079;-84
2022/01/17 03:44:24;;;;;;;17.27;7.28;;;;;;;;;;5016477;28;20743;-86
2022/01/17 03:46:50;;;;;;;8.05;5.05;;;;;;;;;;5034317;28;20021;-85
2022/01/17 03:49:15;;;;;;;11.43;6.30;;;;;;;;;;5034072;28;20033;-85
2022/01/17 03:51:41;;;;;;;10.13;6.53;;;;;;;;;;5034380;28;20032;-85
2022/01/17 03:54:07;;;;;;;13.77;7.00;;;;;;;;;;5034213;28;20021;-84
2022/01/17 03:56:32;;;;;;;13.13;7.05;;;;;;;;;;5033906;28;20151;-84
2022/01/17 03:58:58;;;;;;;12.20;6.63;;;;;;;;;;5034164;28;20112;-85
2022/01/17 04:01:23;;;;;;;15.52;8.45;;;;;;;;;;5016291;28;20044;-85
2022/01/17 04:03:49;;;;;;;16.67;7.70;;;;;;;;;;5033688;28;20497;-86
2022/01/17 04:06:15;;;;;;;12.40;6.07;;;;;;;;;;5033863;28;20025;-85
2022/01/17 04:08:41;;;;;;;11.32;6.85;;;;;;;;;;5015887;28;20469;-85
2022/01/17 04:11:07;;;;;;;12.50;5.72;;;;;;;;;;5015990;28;20032;-84
2022/01/17 04:13:34;;;;;;;10.07;5.68;;;;;;;;;;5033399;28;20437;-85
2022/01/17 04:15:59;;;;;;;13.23;7.00;;;;;;;;;;5033659;28;20123;-85
2022/01/17 04:18:25;;;;;;;10.60;5.55;;;;;;;;;;5033382;28;20105;-85
2022/01/17 04:20:52;;;;;;;14.60;7.68;;;;;;;;;;5015868;28;20504;-84
2022/01/17 04:23:18;;;;;;;12.88;6.10;;;;;;;;;;5015452;28;20128;-85
2022/01/17 04:25:44;;;;;;;12.60;6.00;;;;;;;;;;5015975;28;20100;-85
2022/01/17 04:28:12;;;;;;;11.45;5.00;;;;;;;;;;5033695;28;20052;-84
2022/01/17 04:30:40;;;;;;;10.30;4.70;;;;;;;;;;5015087;28;20120;-84
2022/01/17 04:33:06;;;;;;;8.52;4.28;;;;;;;;;;5032128;28;20104;-84
2022/01/17 04:35:33;;;;;;;9.38;4.70;;;;;;;;;;5015387;28;20116;-84
2022/01/17 04:38:04;;;;;;;11.80;6.15;;;;;;;;;;5015185;28;20025;-85
2022/01/17 04:40:35;;;;;;;9.57;5.82;;;;;;;;;;5015266;28;20029;-85
2022/01/17 04:43:04;;;;;;;15.43;6.65;;;;;;;;;;5015478;28;20642;-85
2022/01/17 04:45:30;;;;;;;14.13;6.53;;;;;;;;;;5032879;28;20091;-86
2022/01/17 04:47:56;;;;;;;13.00;8.00;;;;;;;;;;5032804;28;20033;-85
2022/01/17 04:50:23;;;;;;;12.75;7.60;;;;;;;;;;5014710;28;20029;-84
2022/01/17 04:52:50;;;;;;;13.00;7.22;;;;;;;;;;5032513;28;20051;-85
2022/01/17 04:55:18;;;;;;;16.48;7.18;;;;;;;;;;5014763;28;20108;-85
2022/01/17 04:57:45;;;;;;;15.10;8.25;;;;;;;;;;5032536;28;20056;-85
2022/01/17 05:00:13;;;;;;;13.80;7.45;;;;;;;;;;5015006;28;20029;-87
2022/01/17 05:02:39;;;;;;;13.35;6.55;;;;;;;;;;5032741;28;20048;-85
2022/01/17 05:05:05;;;;;;;10.85;6.25;;;;;;;;;;5014864;28;20021;-84
2022/01/17 05:07:32;;;;;;;13.93;7.85;;;;;;;;;;5032665;28;20045;-87
2022/01/17 05:09:58;;;;;;;19.63;8.50;;;;;;;;;;5031784;28;20470;-86
2022/01/17 05:12:24;;;;;;;12.88;5.07;;;;;;;;;;5014928;28;20025;-87
2022/01/17 05:14:52;;;;;;;10.00;5.30;;;;;;;;;;5014604;28;20045;-85
2022/01/17 05:17:42;;;;;;;13.05;5.32;;;;;;;;;;5014379;28;20083;-85
2022/01/17 05:20:07;;;;;;;8.90;5.75;;;;;;;;;;5029857;28;20116;-85
2022/01/17 05:22:33;;;;;;;11.35;6.40;;;;;;;;;;5032299;28;20029;-86
2022/01/17 05:25:01;;;;;;;9.90;5.70;;;;;;;;;;5014463;28;20039;-87
2022/01/17 05:27:26;;;;;;;10.82;5.55;;;;;;;;;;5019797;28;20030;-87
2022/01/17 05:29:52;;;;;;;13.88;5.85;;;;;;;;;;5015082;28;20091;-84
2022/01/17 05:32:20;;;;;;;17.70;10.15;;;;;;;;;;5032195;28;20060;-85
2022/01/17 05:34:46;;;;;;;22.10;12.38;;;;;;;;;;5014607;28;20087;-87
2022/01/17 05:37:13;;;;;;;15.60;9.00;;;;;;;;;;5020410;28;20030;-85
2022/01/17 05:39:40;;;;;;;20.15;10.43;;;;;;;;;;5014814;28;20083;-85
2022/01/17 05:42:06;;;;;;;15.10;8.20;;;;;;;;;;5013470;28;20363;-85
2022/01/17 05:44:32;;;;;;;17.65;9.73;;;;;;;;;;5013975;28;20056;-84
2022/01/17 05:46:58;;;;;;;25.30;13.10;;;;;;;;;;5014504;28;20232;-84
2022/01/17 05:49:24;;;;;;;18.75;10.52;;;;;;;;;;5036805;28;20101;-84
2022/01/17 05:51:49;;;;;;;24.10;12.25;;;;;;;;;;5013867;28;20025;-85
2022/01/17 05:54:16;;;;;;;22.65;12.55;;;;;;;;;;5014218;28;20024;-84
2022/01/17 05:56:42;;;;;;;23.92;10.75;;;;;;;;;;5031415;28;20121;-86
2022/01/17 05:59:08;;;;;;;15.63;9.35;;;;;;;;;;5023986;28;20075;-84
2022/01/17 06:01:34;;;;;;;17.15;9.13;;;;;;;;;;5032100;28;20416;-84
2022/01/17 06:03:59;;;;;;;23.23;14.13;;;;;;;;;;5013969;28;20034;-83
2022/01/17 06:06:25;;;;;;;19.42;7.93;;;;;;;;;;5013833;28;20051;-84
2022/01/17 06:08:50;;;;;;;16.85;7.72;;;;;;;;;;5013911;28;20029;-84
2022/01/17 06:11:16;;;;;;;16.17;9.40;;;;;;;;;;5028488;28;20026;-85
2022/01/17 06:13:43;;;;;;;14.43;8.30;;;;;;;;;;5014066;28;20033;-83
2022/01/17 06:16:09;;;;;;;16.58;7.78;;;;;;;;;;5006977;28;20105;-83
2022/01/17 06:18:35;;;;;;;13.00;5.97;;;;;;;;;;5028426;28;20113;-83
2022/01/17 06:21:00;;;;;;;10.75;6.40;;;;;;;;;;5026966;28;20504;-82
2022/01/17 06:23:26;;;;;;;16.65;8.73;;;;;;;;;;5030886;28;20038;-82
2022/01/17 06:25:52;;;;;;;17.00;8.57;;;;;;;;;;5031109;28;20105;-85
2022/01/17 06:28:17;;;;;;;16.73;10.63;;;;;;;;;;5013379;28;20493;-86
2022/01/17 06:30:43;;;;;;;23.02;11.63;;;;;;;;;;5031152;28;20029;-85
2022/01/17 06:33:08;;;;;;;20.38;11.23;;;;;;;;;;5031628;28;20032;-84
2022/01/17 06:35:35;;;;;;;25.02;12.55;;;;;;;;;;5013209;28;20033;-85
2022/01/17 06:38:02;;;;;;;19.13;10.90;;;;;;;;;;5017555;28;20029;-85
2022/01/17 06:40:28;;;;;;;28.58;14.00;;;;;;;;;;5035604;28;20028;-86
2022/01/17 06:42:54;;;;;;;26.00;12.35;;;;;;;;;;5035399;28;20025;-84
2022/01/17 06:45:19;;;;;;;18.30;10.38;;;;;;;;;;5030010;28;20048;-83
2022/01/17 06:47:45;;;;;;;24.92;13.18;;;;;;;;;;5017005;28;20470;-85
2022/01/17 06:50:11;;;;;;;25.45;12.80;;;;;;;;;;5010975;28;20485;-85
2022/01/17 06:52:38;;;;;;;27.52;14.88;;;;;;;;;;5017376;28;20496;-86
2022/01/17 06:55:07;;;;;;;28.17;14.93;;;;;;;;;;5034513;28;20465;-83
2022/01/17 06:57:33;;;;;;;25.47;14.07;;;;;;;;;;5033032;28;20025;-83
2022/01/17 06:59:58;;;;;;;24.85;12.65;;;;;;;;;;5031763;28;20029;-83
2022/01/17 07:02:24;;;;;;;26.50;13.65;;;;;;;;;;5013222;28;20469;-83
2022/01/17 07:04:49;;;;;;;29.83;13.48;;;;;;;;;;5006872;28;20057;-85
2022/01/17 07:07:15;;;;;;;22.00;12.13;;;;;;;;;;5017860;28;20025;-84
2022/01/17 07:09:40;;;;;;;21.65;11.50;;;;;;;;;;5012338;28;20076;-85
2022/01/17 07:12:06;;;;;;;28.20;11.75;;;;;;;;;;5028099;28;20512;-84
2022/01/17 07:14:32;;;;;;;19.48;11.18;;;;;;;;;;5015971;28;20074;-83
2022/01/17 07:16:58;;;;;;;24.25;10.48;;;;;;;;;;5020688;28;20413;-85
2022/01/17 07:19:24;;;;;;;20.75;9.82;;;;;;;;;;5029750;28;20409;-86
2022/01/17 07:21:51;;;;;;;15.90;10.15;;;;;;;;;;5034056;28;20424;-83
2022/01/17 07:24:17;;;;;;;21.92;11.52;;;;;;;;;;5031035;28;20077;-86
2022/01/17 07:26:43;;;;;;;22.65;11.40;;;;;;;;;;5013932;28;20017;-87
2022/01/17 07:29:09;;;;;;;22.58;11.30;;;;;;;;;;5033496;28;20036;-86
2022/01/17 07:31:40;;;;;;;26.85;12.35;;;;;;;;;;5032633;28;20052;-86
2022/01/17 07:34:07;;;;;;;28.25;17.30;;;;;;;;;;5033786;28;20037;-85
2022/01/17 07:36:32;;;;;;;24.75;14.93;;;;;;;;;;5014377;28;20038;-84
2022/01/17 07:39:00;;;;;;;22.88;14.85;;;;;;;;;;5032330;28;20076;-86
2022/01/17 07:41:26;;;;;;;26.65;15.07;;;;;;;;;;5015623;28;20687;-85
2022/01/17 07:43:53;;;;;;;25.20;13.27;;;;;;;;;;5016210;28;20121;-86
2022/01/17 07:46:24;;;;;;;26.15;12.10;;;;;;;;;;5016228;28;20021;-86
2022/01/17 07:49:03;;;;;;;16.48;9.32;;;;;;;;;;5013641;28;20026;-91
2022/01/17 07:51:29;;;;;;;6.20;4.13;;;;;;;;;;5014838;28;20108;-86
2022/01/17 07:53:56;;;;;;;4.60;2.63;;;;;;;;;;5015999;28;20357;-85
2022/01/17 07:56:25;;;;;;;5.13;2.88;;;;;;;;;;5014999;28;20030;-85
2022/01/17 07:58:51;;;;;;;7.15;4.13;;;;;;;;;;5014677;28;20061;-84
2022/01/17 08:01:17;;;;;;;5.85;2.85;;;;;;;;;;5014025;28;20057;-85
2022/01/17 08:03:43;;;;;;;6.10;3.63;;;;;;;;;;5012223;28;20026;-87
2022/01/17 08:06:09;;;;;;;9.32;5.30;;;;;;;;;;5015843;28;20083;-86
2022/01/17 08:08:34;;;;;;;6.90;3.50;;;;;;;;;;5033559;28;20033;-87
2022/01/17 08:11:00;;;;;;;5.90;2.88;;;;;;;;;;5015516;28;20036;-85
2022/01/17 08:13:25;;;;;;;4.65;2.95;;;;;;;;;;5013343;28;20125;-85
2022/01/17 08:15:51;;;;;;;5.40;2.88;;;;;;;;;;5015649;28;20037;-84
2022/01/17 08:18:17;;;;;;;7.05;4.55;;;;;;;;;;5015073;28;20036;-87
2022/01/17 08:20:43;;;;;;;7.22;3.78;;;;;;;;;;5015368;28;20036;-85
2022/01/17 08:23:09;;;;;;;6.78;3.78;;;;;;;;;;5013365;28;20045;-83
2022/01/17 08:25:36;;;;;;;5.55;3.10;;;;;;;;;;5014174;28;20025;-82
2022/01/17 08:28:02;;;;;;;4.25;2.13;;;;;;;;;;5031489;28;20029;-84
2022/01/17 08:30:29;;;;;;;3.60;2.38;;;;;;;;;;5032925;28;20385;-82
2022/01/17 08:32:55;;;;;;;4.40;2.45;;;;;;;;;;5032729;28;20453;-81
2022/01/17 08:35:21;;;;;;;6.07;3.25;;;;;;;;;;5031683;28;20025;-83
2022/01/17 08:37:47;;;;;;;4.85;2.63;;;;;;;;;;5031987;28;20032;-82
2022/01/17 08:40:14;;;;;;;4.35;2.70;;;;;;;;;;5032254;28;20393;-83
2022/01/17 08:42:39;;;;;;;7.22;2.97;;;;;;;;;;5032370;28;20521;-81
2022/01/17 08:45:12;;;;;;;7.85;3.00;;;;;;;;;;5030676;28;20105;-82
2022/01/17 08:47:37;;;;;;;5.88;2.67;;;;;;;;;;5031242;28;20444;-83
2022/01/17 08:50:05;;;;;;;5.28;2.97;;;;;;;;;;5015429;28;20117;-82
2022/01/17 08:52:30;;;;;;;4.22;1.77;;;;;;;;;;5032354;28;20037;-83
2022/01/17 08:54:57;;;;;;;5.03;2.20;;;;;;;;;;5031111;28;20047;-83
2022/01/17 08:57:23;;;;;;;1.83;1.10;;;;;;;;;;5031339;28;20728;-82
2022/01/17 08:59:49;;;;;;;2.38;1.38;;;;;;;;;;5030949;28;20030;-84
2022/01/17 09:02:14;;;;;;;2.35;1.58;;;;;;;;;;5032422;28;20083;-80
2022/01/17 09:04:42;;;;;;;4.30;1.95;;;;;;;;;;5014527;28;20076;-86
2022/01/17 09:07:10;;;;;;;4.38;2.35;;;;;;;;;;5014687;28;20147;-84
2022/01/17 09:09:37;;;;;;;2.38;1.58;;;;;;;;;;5013874;28;20029;-83
2022/01/17 09:12:03;;;;;;;6.78;2.88;;;;;;;;;;5015053;28;20082;-84
2022/01/17 09:14:29;;;;;;;3.10;1.88;;;;;;;;;;5032517;28;20359;-82
2022/01/17 09:16:54;;;;;;;3.92;2.13;;;;;;;;;;5032627;28;20026;-83
2022/01/17 09:19:20;;;;;;;3.50;1.80;;;;;;;;;;5014804;28;20037;-84
2022/01/17 09:21:45;;;;;;;1.15;0.93;;;;;;;;;;5014616;28;20141;-83
2022/01/17 09:24:11;;;;;;;3.22;1.88;;;;;;;;;;5014291;28;20057;-83
2022/01/17 09:26:36;;;;;;;3.05;1.88;;;;;;;;;;5032525;28;20057;-83
2022/01/17 09:29:03;;;;;;;1.33;0.95;;;;;;;;;;5032287;28;20071;-84
2022/01/17 09:31:28;;;;;;;2.47;1.52;;;;;;;;;;5026616;28;20033;-83
2022/01/17 09:33:54;;;;;;;2.17;1.40;;;;;;;;;;5032107;28;20033;-86
2022/01/17 09:36:21;;;;;;;2.75;1.73;;;;;;;;;;5014122;28;20025;-83
2022/01/17 09:38:46;;;;;;;2.25;1.70;;;;;;;;;;5014007;28;20363;-82
2022/01/17 09:41:12;;;;;;;4.22;2.42;;;;;;;;;;5014159;28;20025;-83
2022/01/17 09:43:38;;;;;;;4.97;2.97;;;;;;;;;;5014157;28;20025;-83
2022/01/17 09:46:05;;;;;;;5.00;3.25;;;;;;;;;;5032196;28;20021;-85
2022/01/17 09:48:36;;;;;;;4.90;3.35;;;;;;;;;;5032292;28;20032;-83
2022/01/17 09:51:18;;;;;;;5.35;3.47;;;;;;;;;;5031801;28;20029;-83
2022/01/17 09:53:44;;;;;;;4.82;2.45;;;;;;;;;;5031922;28;20112;-83
2022/01/17 09:56:11;;;;;;;5.20;3.53;;;;;;;;;;5031443;28;20025;-83
2022/01/17 09:58:39;;;;;;;3.95;2.63;;;;;;;;;;5031856;28;20040;-85
2022/01/17 10:01:05;;;;;;;5.88;3.72;;;;;;;;;;5031283;28;20025;-86
2022/01/17 10:03:32;;;;;;;5.32;2.53;;;;;;;;;;5031780;28;20021;-82
2022/01/17 10:05:58;;;;;;;4.40;3.10;;;;;;;;;;5031229;28;20033;-83
2022/01/17 10:08:24;;;;;;;5.72;2.88;;;;;;;;;;5014235;28;20021;-84
2022/01/17 10:11:00;;;;;;;7.22;3.30;;;;;;;;;;5013919;28;20056;-85
2022/01/17 10:13:31;;;;;;;4.63;3.22;;;;;;;;;;5013589;28;20025;-87
2022/01/17 10:16:05;;;;;;;5.95;2.67;;;;;;;;;;5030996;28;20033;-86
2022/01/17 10:18:42;;;;;;;3.95;2.15;;;;;;;;;;5013995;28;20117;-85
2022/01/17 10:21:20;;;;;;;3.85;2.00;;;;;;;;;;5031760;28;20041;-84
2022/01/17 10:27:46;;;;;;;4.90;3.83;;;;;;;;;;5005401;28;20500;-84
2022/01/17 10:35:29;;;;;;;5.63;3.13;;;;;;;;;;5031246;28;20063;-84
2022/01/17 10:38:04;;;;;;;9.27;4.05;;;;;;;;;;5013508;28;20032;-84
2022/01/17 10:40:33;;;;;;;6.07;3.25;;;;;;;;;;5010207;28;20025;-84
2022/01/17 10:43:01;;;;;;;8.77;4.20;;;;;;;;;;5029086;28;20083;-83
2022/01/17 10:45:33;;;;;;;5.72;3.55;;;;;;;;;;5030951;28;20278;-86
2022/01/17 10:48:00;;;;;;;6.45;3.75;;;;;;;;;;5030877;28;20095;-83
2022/01/17 10:50:28;;;;;;;9.05;4.43;;;;;;;;;;5013070;28;20021;-83
2022/01/17 10:52:56;;;;;;;9.18;3.95;;;;;;;;;;5031193;28;20128;-83
2022/01/17 10:55:30;;;;;;;6.63;3.88;;;;;;;;;;5030696;28;20075;-83
2022/01/17 10:58:09;;;;;;;9.18;4.43;;;;;;;;;;5013717;28;20026;-83
2022/01/17 11:00:37;;;;;;;4.07;2.25;;;;;;;;;;5029166;28;20079;-84
2022/01/17 11:03:06;;;;;;;6.75;4.00;;;;;;;;;;5031304;28;20060;-86
2022/01/17 11:05:34;;;;;;;4.95;3.63;;;;;;;;;;5026516;28;20504;-84
2022/01/17 11:08:02;;;;;;;6.57;4.25;;;;;;;;;;5029504;28;20033;-82
2022/01/17 11:10:37;;;;;;;4.90;3.35;;;;;;;;;;5031368;28;20025;-83
2022/01/17 11:13:05;;;;;;;5.90;3.75;;;;;;;;;;5012443;28;20452;-85
2022/01/17 11:15:33;;;;;;;5.57;2.97;;;;;;;;;;5028609;28;20029;-87
2022/01/17 11:18:04;;;;;;;4.57;3.53;;;;;;;;;;5027296;28;20037;-84
2022/01/17 11:20:32;;;;;;;7.00;5.03;;;;;;;;;;5030952;28;20034;-83
2022/01/17 11:22:59;;;;;;;6.32;3.50;;;;;;;;;;5013126;28;20129;-83
2022/01/17 11:25:28;;;;;;;3.72;2.95;;;;;;;;;;5015926;28;20163;-84
2022/01/17 11:27:55;;;;;;;9.85;3.17;;;;;;;;;;5033515;28;20428;-83
2022/01/17 11:30:21;;;;;;;4.28;2.80;;;;;;;;;;5015485;28;20385;-83
2022/01/17 11:32:50;;;;;;;4.80;2.63;;;;;;;;;;5016731;28;20033;-82
2022/01/17 11:35:17;;;;;;;4.53;3.30;;;;;;;;;;5016313;28;20524;-82
2022/01/17 11:37:46;;;;;;;4.20;2.90;;;;;;;;;;5034539;28;20053;-83
2022/01/17 11:40:14;;;;;;;4.35;1.98;;;;;;;;;;5029423;28;20052;-83
2022/01/17 11:42:42;;;;;;;4.35;2.42;;;;;;;;;;5016770;28;20072;-86
2022/01/17 11:45:23;;;;;;;4.07;2.33;;;;;;;;;;5016120;28;20083;-82
2022/01/17 11:47:48;;;;;;;4.00;2.50;;;;;;;;;;5016176;28;20026;-83
2022/01/17 11:50:31;;;;;;;3.70;2.67;;;;;;;;;;5016356;28;20091;-84
2022/01/17 11:53:16;;;;;;;4.97;2.65;;;;;;;;;;5032740;28;20079;-84
2022/01/17 11:55:44;;;;;;;4.82;3.53;;;;;;;;;;5032912;28;20154;-83
2022/01/17 11:58:31;;;;;;;6.10;2.42;;;;;;;;;;5010603;28;20025;-84
2022/01/17 12:00:57;;;;;;;4.63;2.42;;;;;;;;;;5029932;28;20033;-83
2022/01/17 12:03:27;;;;;;;5.25;2.92;;;;;;;;;;5013336;28;20035;-84
2022/01/17 12:06:04;;;;;;;5.30;3.40;;;;;;;;;;5032131;28;20048;-81
2022/01/17 12:08:31;;;;;;;5.25;2.88;;;;;;;;;;5029959;28;20029;-82
2022/01/17 12:10:59;;;;;;;4.80;3.47;;;;;;;;;;5032539;28;20044;-82
2022/01/17 12:13:41;;;;;;;6.32;4.38;;;;;;;;;;5014060;28;20029;-83
2022/01/17 12:16:32;;;;;;;4.28;2.92;;;;;;;;;;5032604;28;20109;-82
2022/01/17 12:18:58;;;;;;;3.00;2.22;;;;;;;;;;5026972;28;20065;-82
2022/01/17 12:21:32;;;;;;;6.32;3.42;;;;;;;;;;5027518;28;20041;-82
2022/01/17 12:24:16;;;;;;;5.47;3.63;;;;;;;;;;5030479;28;20095;-82
2022/01/17 12:27:07;;;;;;;5.57;2.92;;;;;;;;;;5032092;28;20457;-83
2022/01/17 12:29:54;;;;;;;5.40;3.00;;;;;;;;;;5030118;28;20573;-83
2022/01/17 12:32:20;;;;;;;6.32;3.55;;;;;;;;;;5012856;28;20029;-82
2022/01/17 12:34:47;;;;;;;6.25;3.47;;;;;;;;;;5012501;28;20041;-82
2022/01/17 12:37:39;;;;;;;4.47;3.10;;;;;;;;;;5030841;28;20034;-83
2022/01/17 12:40:11;;;;;;;4.22;3.25;;;;;;;;;;5030723;28;20436;-82
2022/01/17 12:42:58;;;;;;;4.03;2.85;;;;;;;;;;5032793;28;20091;-82
2022/01/17 12:45:36;;;;;;;4.80;3.30;;;;;;;;;;5015472;28;20029;-82
2022/01/17 12:48:08;;;;;;;7.20;3.65;;;;;;;;;;5030822;28;20033;-82
2022/01/17 12:50:36;;;;;;;6.20;3.55;;;;;;;;;;5011946;28;20040;-82
2022/01/17 12:53:04;;;;;;;4.65;3.58;;;;;;;;;;5030142;28;20120;-82
2022/01/17 12:55:39;;;;;;;5.60;3.00;;;;;;;;;;5029385;28;20466;-83
2022/01/17 12:58:14;;;;;;;4.38;3.25;;;;;;;;;;5024488;28;20044;-82
2022/01/17 13:00:44;;;;;;;5.45;3.22;;;;;;;;;;5028321;28;20033;-82
2022/01/17 13:03:11;;;;;;;5.75;3.50;;;;;;;;;;5028750;28;20033;-83
2022/01/17 13:05:39;;;;;;;6.75;3.78;;;;;;;;;;5028808;28;20033;-83
2022/01/17 13:08:05;;;;;;;6.45;3.28;;;;;;;;;;5010237;28;20026;-86
2022/01/17 13:10:32;;;;;;;8.90;5.53;;;;;;;;;;5011755;28;20389;-81
2022/01/17 13:13:00;;;;;;;5.82;3.55;;;;;;;;;;5031171;28;20462;-81
2022/01/17 13:15:26;;;;;;;8.45;4.28;;;;;;;;;;5029771;28;20025;-83
2022/01/17 13:17:53;;;;;;;6.45;3.83;;;;;;;;;;5029174;28;20029;-82
2022/01/17 13:20:22;;;;;;;7.20;3.85;;;;;;;;;;5030511;28;20540;-82
2022/01/17 13:23:13;;;;;;;10.40;5.88;;;;;;;;;;5029501;28;20050;-82
2022/01/17 13:25:37;;;;;;;6.25;3.60;;;;;;;;;;5028934;28;20539;-81
2022/01/17 13:28:04;;;;;;;7.72;4.18;;;;;;;;;;5013909;28;20045;-84
2022/01/17 13:30:35;;;;;;;5.90;2.90;;;;;;;;;;5031105;28;20024;-82
2022/01/17 13:33:05;;;;;;;5.13;3.58;;;;;;;;;;5031669;28;20426;-82
2022/01/17 13:35:33;;;;;;;5.65;3.80;;;;;;;;;;5013781;28;20056;-82
2022/01/17 13:38:10;;;;;;;6.28;3.08;;;;;;;;;;5030382;28;20389;-82
2022/01/17 13:40:38;;;;;;;9.75;4.88;;;;;;;;;;5013491;28;20124;-82
2022/01/17 13:43:05;;;;;;;6.75;4.00;;;;;;;;;;5031516;28;20033;-82
2022/01/17 13:45:39;;;;;;;5.28;3.83;;;;;;;;;;5013569;28;20037;-83
2022/01/17 13:48:08;;;;;;;8.45;4.28;;;;;;;;;;5028805;28;20021;-85
2022/01/17 13:50:49;;;;;;;4.15;2.85;;;;;;;;;;5030442;28;20108;-85
2022/01/17 13:53:19;;;;;;;2.95;2.13;;;;;;;;;;5012961;28;20436;-82
2022/01/17 13:55:47;;;;;;;4.28;2.80;;;;;;;;;;5029286;28;20036;-82
2022/01/17 13:58:16;;;;;;;6.57;3.38;;;;;;;;;;5028458;28;20045;-82
2022/01/17 14:00:53;;;;;;;4.03;2.53;;;;;;;;;;5029231;28;20087;-84
2022/01/17 14:03:24;;;;;;;4.80;3.28;;;;;;;;;;5010252;28;20092;-82
2022/01/17 14:05:52;;;;;;;4.95;2.75;;;;;;;;;;5012221;28;20101;-83
2022/01/17 14:08:29;;;;;;;6.20;2.63;;;;;;;;;;5031511;28;20056;-81
2022/01/17 14:11:06;;;;;;;4.63;2.92;;;;;;;;;;5029360;28;20029;-86
2022/01/17 14:13:44;;;;;;;5.28;3.28;;;;;;;;;;5029656;28;20029;-82
2022/01/17 14:16:22;;;;;;;3.58;2.28;;;;;;;;;;5029301;28;20029;-82
2022/01/17 14:18:51;;;;;;;4.82;2.88;;;;;;;;;;5030559;28;20033;-84
2022/01/17 14:21:49;;;;;;;5.32;2.35;;;;;;;;;;5031381;28;20030;-83
2022/01/17 14:24:23;;;;;;;6.15;2.30;;;;;;;;;;5001577;28;20049;-86
2022/01/17 14:26:56;;;;;;;4.75;3.42;;;;;;;;;;5013387;28;20116;-85
2022/01/17 14:29:27;;;;;;;7.53;3.40;;;;;;;;;;5030648;28;20115;-84
2022/01/17 14:31:55;;;;;;;6.00;3.65;;;;;;;;;;5030777;28;20025;-83
2022/01/17 14:34:32;;;;;;;5.32;2.60;;;;;;;;;;5013416;28;20030;-84
2022/01/17 14:37:03;;;;;;;3.40;2.35;;;;;;;;;;5025754;28;20025;-83
2022/01/17 14:39:34;;;;;;;3.58;2.55;;;;;;;;;;5021112;28;20277;-84
2022/01/17 14:42:08;;;;;;;4.38;3.35;;;;;;;;;;5013432;28;20116;-83
2022/01/17 14:44:36;;;;;;;3.22;1.85;;;;;;;;;;5020500;28;22018;-82
2022/01/17 14:47:07;;;;;;;8.63;2.40;;;;;;;;;;5027792;28;20045;-82
2022/01/17 14:49:38;;;;;;;3.33;2.38;;;;;;;;;;5015516;28;20108;-83
2022/01/17 14:52:11;;;;;;;4.72;2.90;;;;;;;;;;5011831;28;20099;-81
2022/01/17 14:54:46;;;;;;;5.90;2.13;;;;;;;;;;5028850;28;20460;-82
2022/01/17 15:00:04;;;;;;;6.55;3.80;;;;;;;;;;5037341;28;20068;-83
2022/01/17 15:02:34;;;;;;;4.60;3.30;;;;;;;;;;5034880;28;20033;-82
2022/01/17 15:05:00;;;;;;;6.10;3.60;;;;;;;;;;5036704;28;20061;-82
2022/01/17 15:07:26;;;;;;;3.75;2.47;;;;;;;;;;5034633;28;20048;-81
2022/01/17 15:09:51;;;;;;;4.20;2.53;;;;;;;;;;5016574;28;20043;-86